createdAt,value
2022-11-05T00:00:41.264Z,9.75
2022-11-05T00:03:29.019Z,9.92
2022-11-05T00:06:20.263Z,9.88
2022-11-05T00:09:08.263Z,10.06
2022-11-05T00:11:52.289Z,9.95
2022-11-05T00:14:40.270Z,9.79
2022-11-05T00:17:09.345Z,10.00
2022-11-05T00:19:37.795Z,9.78
2022-11-05T00:22:28.628Z,9.91
2022-11-05T00:25:16.910Z,10.10
2022-11-05T00:27:48.945Z,10.02
2022-11-05T00:30:20.358Z,10.18
2022-11-05T00:32:49.531Z,10.06
2022-11-05T00:35:18.991Z,10.21
2022-11-05T00:37:50.247Z,9.97
2022-11-05T00:40:19.061Z,9.96
2022-11-05T00:43:04.939Z,9.85
2022-11-05T00:45:33.275Z,10.06
2022-11-05T00:48:19.608Z,10.09
2022-11-05T00:50:47.743Z,10.17
2022-11-05T00:53:18.845Z,10.04
2022-11-05T00:55:47.728Z,10.03
2022-11-05T00:58:19.808Z,10.10
2022-11-05T01:00:50.858Z,10.10
2022-11-05T01:03:23.641Z,10.16
2022-11-05T01:05:59.563Z,9.95
2022-11-05T01:08:29.641Z,10.14
2022-11-05T01:10:59.505Z,10.14
2022-11-05T01:13:33.176Z,10.10
2022-11-05T01:16:07.775Z,10.01
2022-11-05T01:18:38.405Z,9.92
2022-11-05T01:21:16.652Z,10.10
2022-11-05T01:23:52.575Z,10.09
2022-11-05T01:26:22.020Z,10.23
2022-11-05T01:29:01.003Z,10.17
2022-11-05T01:31:42.928Z,10.01
2022-11-05T01:34:11.120Z,9.99
2022-11-05T01:36:42.689Z,10.01
2022-11-05T01:39:13.840Z,10.15
2022-11-05T01:41:42.156Z,10.01
2022-11-05T01:44:47.057Z,10.00
2022-11-05T01:47:25.340Z,10.25
2022-11-05T01:49:55.947Z,10.05
2022-11-05T01:52:25.192Z,10.02
2022-11-05T01:55:00.237Z,10.06
2022-11-05T01:57:30.142Z,10.02
2022-11-05T02:00:01.085Z,9.97
2022-11-05T02:02:29.691Z,9.88
2022-11-05T02:05:01.075Z,9.99
2022-11-05T02:07:30.086Z,10.02
2022-11-05T02:10:05.380Z,9.94
2022-11-05T02:12:35.188Z,9.99
2022-11-05T02:15:03.323Z,10.17
2022-11-05T02:17:41.625Z,10.21
2022-11-05T02:20:25.059Z,10.16
2022-11-05T02:23:41.511Z,10.02
2022-11-05T02:26:49.438Z,10.03
2022-11-05T02:29:58.183Z,9.79
2022-11-05T02:32:46.554Z,9.89
2022-11-05T02:35:26.439Z,9.84
2022-11-05T02:38:02.464Z,9.68
2022-11-05T02:40:37.741Z,9.84
2022-11-05T02:43:18.460Z,9.86
2022-11-05T02:45:54.560Z,9.80
2022-11-05T02:48:30.034Z,9.65
2022-11-05T02:51:04.172Z,9.78
2022-11-05T02:53:37.975Z,9.68
2022-11-05T02:56:10.290Z,9.82
2022-11-05T02:58:38.684Z,9.69
2022-11-05T03:01:07.177Z,9.79
2022-11-05T03:03:42.720Z,9.81
2022-11-05T03:06:28.838Z,9.80
2022-11-05T03:09:21.487Z,9.71
2022-11-05T03:12:04.559Z,9.77
2022-11-05T03:14:40.819Z,9.85
2022-11-05T03:17:14.837Z,9.72
2022-11-05T03:19:50.340Z,9.76
2022-11-05T03:22:23.364Z,9.93
2022-11-05T03:24:55.936Z,9.89
2022-11-05T03:27:27.600Z,9.92
2022-11-05T03:30:03.589Z,9.88
2022-11-05T03:32:35.212Z,9.96
2022-11-05T03:35:09.974Z,10.02
2022-11-05T03:37:41.422Z,9.74
2022-11-05T03:40:12.077Z,9.72
2022-11-05T03:42:46.874Z,9.65
2022-11-05T03:45:18.390Z,9.86
2022-11-05T03:47:49.097Z,9.93
2022-11-05T03:50:22.655Z,9.80
2022-11-05T03:52:59.188Z,9.84
2022-11-05T03:55:31.879Z,9.89
2022-11-05T03:58:00.481Z,9.96
2022-11-05T04:00:28.785Z,10.04
2022-11-05T04:02:57.465Z,10.01
2022-11-05T04:05:29.733Z,9.95
2022-11-05T04:08:15.176Z,9.73
2022-11-05T04:11:01.389Z,9.81
2022-11-05T04:13:30.918Z,9.84
2022-11-05T04:16:18.576Z,9.84
2022-11-05T04:18:48.961Z,9.85
2022-11-05T04:21:35.567Z,9.86
2022-11-05T04:24:10.557Z,9.97
2022-11-05T04:26:40.952Z,9.99
2022-11-05T04:29:28.588Z,9.92
2022-11-05T04:31:59.933Z,9.86
2022-11-05T04:34:29.109Z,9.96
2022-11-05T04:36:58.903Z,9.92
2022-11-05T04:39:28.300Z,9.86
2022-11-05T04:42:00.090Z,9.90
2022-11-05T04:44:28.180Z,10.00
2022-11-05T04:46:56.774Z,10.00
2022-11-05T04:49:24.840Z,9.86
2022-11-05T04:52:00.103Z,9.91
2022-11-05T04:54:34.257Z,9.74
2022-11-05T04:57:02.514Z,9.75
2022-11-05T04:59:31.224Z,9.79
2022-11-05T05:01:59.844Z,9.77
2022-11-05T05:04:28.457Z,9.67
2022-11-05T05:06:59.910Z,9.72
2022-11-05T05:09:29.355Z,9.70
2022-11-05T05:11:58.992Z,9.64
2022-11-05T05:14:27.253Z,9.84
2022-11-05T05:16:56.722Z,9.62
2022-11-05T05:19:25.495Z,9.64
2022-11-05T05:21:56.429Z,9.55
2022-11-05T05:24:25.453Z,9.61
2022-11-05T05:26:57.526Z,9.74
2022-11-05T05:29:26.627Z,9.64
2022-11-05T05:31:57.193Z,9.66
2022-11-05T05:34:27.348Z,9.58
2022-11-05T05:36:56.763Z,9.71
2022-11-05T05:39:24.834Z,9.49
2022-11-05T05:42:00.151Z,9.58
2022-11-05T05:44:28.295Z,9.54
2022-11-05T05:46:57.604Z,9.45
2022-11-05T05:49:25.611Z,9.68
2022-11-05T05:51:59.142Z,9.63
2022-11-05T05:54:33.368Z,9.66
2022-11-05T05:57:09.440Z,9.75
2022-11-05T05:59:38.719Z,9.63
2022-11-05T06:02:07.285Z,9.72
2022-11-05T06:04:36.492Z,9.55
2022-11-05T06:07:05.337Z,9.58
2022-11-05T06:09:33.372Z,9.70
2022-11-05T06:12:02.550Z,9.58
2022-11-05T06:14:33.202Z,9.79
2022-11-05T06:17:03.602Z,9.70
2022-11-05T06:19:32.691Z,9.80
2022-11-05T06:22:03.849Z,9.80
2022-11-05T06:24:34.264Z,9.56
2022-11-05T06:27:02.319Z,9.70
2022-11-05T06:29:33.918Z,9.80
2022-11-05T06:32:03.307Z,9.97
2022-11-05T06:34:33.169Z,9.75
2022-11-05T06:37:03.897Z,9.97
2022-11-05T06:39:34.586Z,9.91
2022-11-05T06:42:19.344Z,9.83
2022-11-05T06:44:48.191Z,9.78
2022-11-05T06:47:17.720Z,9.93
2022-11-05T06:49:47.808Z,9.94
2022-11-05T06:52:16.928Z,9.83
2022-11-05T06:54:46.211Z,10.11
2022-11-05T06:57:15.708Z,10.04
2022-11-05T06:59:44.449Z,9.75
2022-11-05T07:02:14.297Z,10.00
2022-11-05T07:04:43.770Z,9.84
2022-11-05T07:07:13.381Z,9.92
2022-11-05T07:09:43.262Z,9.83
2022-11-05T07:12:12.646Z,9.70
2022-11-05T07:14:41.385Z,10.00
2022-11-05T07:17:10.469Z,9.78
2022-11-05T07:19:39.708Z,9.74
2022-11-05T07:22:11.925Z,9.92
2022-11-05T07:24:40.396Z,9.90
2022-11-05T07:27:09.563Z,9.87
2022-11-05T07:29:38.416Z,9.86
2022-11-05T07:32:08.054Z,10.00
2022-11-05T07:34:38.809Z,9.86
2022-11-05T07:37:06.809Z,9.99
2022-11-05T07:39:36.799Z,9.96
2022-11-05T07:42:06.134Z,9.96
2022-11-05T07:44:35.461Z,9.94
2022-11-05T07:47:03.511Z,9.99
2022-11-05T07:49:32.428Z,9.92
2022-11-05T07:52:03.776Z,9.86
2022-11-05T07:54:31.824Z,9.86
2022-11-05T07:57:04.828Z,9.91
2022-11-05T07:59:33.207Z,10.12
2022-11-05T08:02:03.839Z,10.08
2022-11-05T08:04:32.034Z,10.02
2022-11-05T08:07:00.495Z,10.08
2022-11-05T08:09:28.911Z,10.14
2022-11-05T08:12:02.634Z,10.19
2022-11-05T08:14:37.854Z,10.24
2022-11-05T08:17:06.484Z,10.39
2022-11-05T08:19:35.975Z,10.20
2022-11-05T08:22:04.560Z,10.22
2022-11-05T08:24:32.918Z,10.34
2022-11-05T08:27:04.045Z,10.50
2022-11-05T08:29:34.995Z,10.41
2022-11-05T08:32:04.474Z,10.62
2022-11-05T08:34:34.806Z,10.67
2022-11-05T08:37:03.709Z,10.81
2022-11-05T08:39:31.803Z,11.03
2022-11-05T08:42:00.554Z,10.98
2022-11-05T08:44:30.306Z,10.99
2022-11-05T08:47:00.091Z,11.08
2022-11-05T08:49:29.441Z,10.95
2022-11-05T08:52:00.917Z,11.05
2022-11-05T08:54:32.931Z,11.09
2022-11-05T08:57:03.811Z,11.28
2022-11-05T08:59:31.832Z,11.09
2022-11-05T09:02:04.922Z,11.14
2022-11-05T09:04:33.309Z,11.20
2022-11-05T09:07:03.889Z,11.15
2022-11-05T09:09:33.212Z,11.25
2022-11-05T09:12:17.686Z,11.38
2022-11-05T09:14:48.972Z,11.10
2022-11-05T09:17:20.000Z,11.02
2022-11-05T09:19:49.838Z,11.18
2022-11-05T09:22:17.900Z,11.10
2022-11-05T09:24:46.760Z,11.27
2022-11-05T09:27:15.901Z,11.23
2022-11-05T09:29:44.576Z,11.34
2022-11-05T09:32:19.049Z,11.43
2022-11-05T09:34:49.080Z,11.20
2022-11-05T09:37:21.790Z,11.24
2022-11-05T09:39:50.925Z,11.29
2022-11-05T09:42:42.303Z,11.55
2022-11-05T09:45:18.935Z,11.58
2022-11-05T09:47:49.408Z,11.38
2022-11-05T09:50:26.389Z,11.25
2022-11-05T09:52:56.993Z,11.47
2022-11-05T09:55:29.282Z,11.52
2022-11-05T09:58:01.933Z,11.66
2022-11-05T10:00:33.520Z,11.60
2022-11-05T10:03:05.486Z,11.61
2022-11-05T10:05:38.518Z,11.71
2022-11-05T10:08:12.404Z,11.65
2022-11-05T10:10:44.809Z,11.73
2022-11-05T10:13:23.036Z,11.73
2022-11-05T10:15:59.614Z,11.88
2022-11-05T10:18:32.332Z,11.81
2022-11-05T10:21:03.760Z,12.06
2022-11-05T10:23:34.586Z,12.04
2022-11-05T10:26:04.476Z,11.94
2022-11-05T10:28:35.053Z,12.02
2022-11-05T10:31:09.323Z,12.06
2022-11-05T10:33:42.805Z,12.17
2022-11-05T10:36:18.265Z,12.13
2022-11-05T10:38:49.050Z,12.46
2022-11-05T10:41:39.056Z,12.47
2022-11-05T10:44:18.937Z,12.25
2022-11-05T10:46:53.713Z,12.46
2022-11-05T10:49:35.062Z,12.14
2022-11-05T10:52:23.301Z,12.06
2022-11-05T10:55:02.571Z,12.20
2022-11-05T10:57:34.298Z,12.20
2022-11-05T11:00:22.673Z,12.05
2022-11-05T11:02:53.269Z,12.25
2022-11-05T11:05:31.309Z,12.24
2022-11-05T11:08:07.905Z,12.35
2022-11-05T11:10:41.984Z,12.27
2022-11-05T11:13:20.613Z,12.33
2022-11-05T11:15:50.982Z,12.24
2022-11-05T11:18:27.930Z,12.41
2022-11-05T11:21:09.406Z,12.60
2022-11-05T11:23:40.427Z,12.43
2022-11-05T11:26:09.174Z,12.35
2022-11-05T11:28:39.800Z,12.21
2022-11-05T11:31:12.931Z,12.39
2022-11-05T11:33:43.937Z,12.38
2022-11-05T11:36:13.398Z,12.29
2022-11-05T11:38:45.499Z,12.08
2022-11-05T11:41:28.052Z,12.14
2022-11-05T11:44:01.372Z,12.18
2022-11-05T11:46:33.696Z,11.84
2022-11-05T11:49:02.088Z,11.87
2022-11-05T11:51:35.954Z,11.78
2022-11-05T11:54:06.708Z,11.93
2022-11-05T11:56:44.636Z,11.79
2022-11-05T11:59:30.804Z,11.94
2022-11-05T12:02:40.791Z,11.83
2022-11-05T12:05:18.534Z,11.91
2022-11-05T12:07:57.197Z,11.85
2022-11-05T12:10:57.217Z,11.79
2022-11-05T12:14:04.459Z,12.13
2022-11-05T12:16:56.700Z,12.12
2022-11-05T12:19:34.327Z,12.20
2022-11-05T12:22:08.348Z,12.01
2022-11-05T12:24:56.349Z,12.21
2022-11-05T12:27:40.799Z,12.13
2022-11-05T12:30:13.903Z,12.21
2022-11-05T12:33:12.755Z,12.31
2022-11-05T12:35:53.428Z,12.25
2022-11-05T12:38:34.820Z,12.27
2022-11-05T12:41:13.784Z,12.34
2022-11-05T12:44:00.771Z,12.32
2022-11-05T12:46:35.793Z,12.25
2022-11-05T12:49:24.027Z,12.15
2022-11-05T12:52:08.065Z,12.42
2022-11-05T12:54:49.781Z,12.35
2022-11-05T12:57:19.091Z,12.56
2022-11-05T12:59:57.154Z,12.56
2022-11-05T13:02:30.950Z,12.60
2022-11-05T13:05:08.138Z,12.55
2022-11-05T13:07:40.484Z,12.25
2022-11-05T13:10:16.842Z,12.28
2022-11-05T13:13:00.551Z,12.46
2022-11-05T13:15:37.594Z,12.48
2022-11-05T13:18:12.008Z,12.39
2022-11-05T13:20:44.805Z,12.33
2022-11-05T13:23:19.549Z,12.35
2022-11-05T13:25:54.189Z,12.34
2022-11-05T13:28:33.959Z,12.47
2022-11-05T13:31:06.328Z,12.36
2022-11-05T13:33:38.447Z,12.36
2022-11-05T13:36:28.549Z,12.44
2022-11-05T13:39:03.681Z,12.41
2022-11-05T13:41:49.984Z,12.36
2022-11-05T13:44:43.169Z,12.34
2022-11-05T13:47:39.850Z,12.19
2022-11-05T13:50:59.798Z,12.15
2022-11-05T13:53:43.241Z,12.24
2022-11-05T13:56:24.803Z,12.40
2022-11-05T13:59:10.407Z,12.23
2022-11-05T14:01:50.312Z,12.15
2022-11-05T14:04:29.558Z,12.38
2022-11-05T14:07:08.469Z,12.20
2022-11-05T14:09:39.493Z,12.34
2022-11-05T14:12:15.455Z,12.24
2022-11-05T14:14:47.634Z,12.18
2022-11-05T14:17:28.495Z,12.27
2022-11-05T14:20:36.913Z,12.25
2022-11-05T14:23:37.758Z,12.18
2022-11-05T14:26:30.538Z,12.35
2022-11-05T14:29:27.963Z,12.30
2022-11-05T14:32:08.925Z,12.30
2022-11-05T14:34:48.449Z,12.25
2022-11-05T14:37:39.060Z,12.21
2022-11-05T14:40:38.416Z,12.21
2022-11-05T14:43:09.704Z,12.31
2022-11-05T14:45:41.847Z,12.17
2022-11-05T14:48:29.303Z,12.10
2022-11-05T14:50:59.669Z,12.25
2022-11-05T14:53:33.451Z,12.27
2022-11-05T14:56:05.909Z,12.49
2022-11-05T14:58:40.426Z,12.20
2022-11-05T15:01:11.176Z,12.21
2022-11-05T15:04:17.702Z,12.10
2022-11-05T15:07:19.615Z,12.11
2022-11-05T15:09:57.402Z,12.28
2022-11-05T15:12:33.266Z,12.20
2022-11-05T15:15:05.059Z,12.14
2022-11-05T15:17:40.229Z,12.18
2022-11-05T15:20:14.350Z,12.26
2022-11-05T15:22:59.950Z,11.95
2022-11-05T15:25:35.595Z,12.29
2022-11-05T15:28:09.558Z,12.31
2022-11-05T15:30:40.291Z,12.20
2022-11-05T15:33:22.210Z,12.12
2022-11-05T15:35:50.336Z,12.14
2022-11-05T15:38:35.010Z,12.06
2022-11-05T15:41:15.895Z,12.15
2022-11-05T15:43:48.188Z,12.13
2022-11-05T15:46:22.445Z,12.03
2022-11-05T15:48:56.692Z,12.05
2022-11-05T15:51:29.612Z,12.11
2022-11-05T15:54:24.400Z,12.09
2022-11-05T15:56:57.273Z,12.18
2022-11-05T15:59:28.941Z,12.08
2022-11-05T16:02:03.511Z,12.12
2022-11-05T16:04:35.333Z,11.96
2022-11-05T16:07:10.259Z,12.02
2022-11-05T16:09:40.257Z,12.02
2022-11-05T16:12:29.148Z,11.94
2022-11-05T16:15:00.989Z,11.99
2022-11-05T16:17:36.700Z,12.09
2022-11-05T16:20:20.049Z,11.82
2022-11-05T16:22:50.134Z,11.83
2022-11-05T16:25:29.763Z,11.81
2022-11-05T16:28:04.624Z,11.85
2022-11-05T16:30:36.519Z,11.85
2022-11-05T16:33:07.642Z,11.91
2022-11-05T16:35:50.965Z,11.77
2022-11-05T16:38:22.214Z,11.64
2022-11-05T16:41:01.114Z,11.70
2022-11-05T16:43:38.209Z,11.86
2022-11-05T16:46:08.222Z,11.89
2022-11-05T16:48:38.004Z,11.82
2022-11-05T16:51:06.623Z,11.92
2022-11-05T16:53:38.838Z,11.84
2022-11-05T16:56:11.130Z,11.81
2022-11-05T16:59:00.081Z,11.80
2022-11-05T17:01:30.609Z,11.75
2022-11-05T17:03:59.548Z,11.63
2022-11-05T17:06:31.235Z,11.72
2022-11-05T17:09:01.838Z,11.70
2022-11-05T17:11:33.985Z,11.71
2022-11-05T17:14:11.795Z,11.75
2022-11-05T17:16:44.495Z,11.78
2022-11-05T17:19:19.168Z,11.79
2022-11-05T17:21:50.507Z,11.78
2022-11-05T17:24:20.027Z,11.76
2022-11-05T17:26:50.288Z,11.79
2022-11-05T17:29:23.303Z,11.89
2022-11-05T17:31:56.417Z,11.79
2022-11-05T17:34:26.688Z,11.95
2022-11-05T17:36:59.464Z,11.80
2022-11-05T17:39:31.992Z,11.92
2022-11-05T17:42:02.607Z,11.99
2022-11-05T17:44:33.601Z,11.83
2022-11-05T17:47:03.405Z,11.90
2022-11-05T17:49:33.225Z,11.91
2022-11-05T17:52:05.538Z,11.98
2022-11-05T17:54:36.113Z,11.72
2022-11-05T17:57:07.248Z,11.75
2022-11-05T17:59:39.130Z,11.70
2022-11-05T18:02:11.948Z,11.81
2022-11-05T18:04:44.842Z,11.91
2022-11-05T18:07:20.240Z,11.81
2022-11-05T18:09:49.457Z,11.73
2022-11-05T18:12:18.279Z,11.89
2022-11-05T18:14:56.585Z,11.82
2022-11-05T18:17:28.932Z,11.77
2022-11-05T18:19:59.758Z,11.61
2022-11-05T18:22:30.081Z,11.86
2022-11-05T18:25:03.917Z,11.83
2022-11-05T18:27:33.707Z,11.77
2022-11-05T18:30:05.723Z,11.72
2022-11-05T18:32:36.136Z,11.69
2022-11-05T18:35:05.316Z,11.63
2022-11-05T18:37:34.736Z,11.60
2022-11-05T18:40:06.165Z,11.70
2022-11-05T18:42:40.608Z,11.49
2022-11-05T18:45:14.084Z,11.48
2022-11-05T18:47:45.717Z,11.81
2022-11-05T18:50:20.641Z,11.59
2022-11-05T18:52:50.485Z,11.41
2022-11-05T18:55:20.042Z,11.53
2022-11-05T18:57:50.297Z,11.45
2022-11-05T19:00:24.149Z,11.53
2022-11-05T19:02:53.240Z,11.56
2022-11-05T19:05:30.883Z,11.56
2022-11-05T19:07:59.675Z,11.54
2022-11-05T19:10:31.420Z,11.59
2022-11-05T19:13:00.811Z,11.35
2022-11-05T19:15:32.841Z,11.62
2022-11-05T19:18:07.300Z,11.46
2022-11-05T19:20:38.492Z,11.47
2022-11-05T19:23:08.005Z,11.53
2022-11-05T19:25:40.167Z,11.53
2022-11-05T19:28:09.743Z,11.43
2022-11-05T19:30:56.257Z,11.42
2022-11-05T19:33:36.238Z,11.58
2022-11-05T19:36:08.128Z,11.45
2022-11-05T19:38:54.966Z,11.20
2022-11-05T19:41:24.144Z,11.27
2022-11-05T19:44:00.623Z,11.27
2022-11-05T19:46:33.823Z,11.10
2022-11-05T19:49:05.019Z,11.15
2022-11-05T19:51:35.162Z,11.30
2022-11-05T19:54:06.095Z,11.20
2022-11-05T19:56:38.867Z,10.93
2022-11-05T19:59:08.413Z,11.07
2022-11-05T20:01:40.467Z,11.12
2022-11-05T20:04:13.815Z,11.09
2022-11-05T20:06:43.393Z,11.04
2022-11-05T20:09:21.667Z,11.15
2022-11-05T20:12:00.794Z,10.96
2022-11-05T20:14:33.987Z,10.90
2022-11-05T20:17:04.911Z,11.14
2022-11-05T20:19:35.542Z,10.91
2022-11-05T20:22:07.440Z,10.92
2022-11-05T20:24:38.515Z,11.00
2022-11-05T20:27:11.124Z,10.98
2022-11-05T20:29:42.491Z,10.77
2022-11-05T20:32:14.679Z,11.01
2022-11-05T20:34:45.510Z,10.99
2022-11-05T20:37:17.126Z,10.94
2022-11-05T20:39:48.540Z,10.87
2022-11-05T20:42:19.998Z,10.92
2022-11-05T20:44:58.910Z,10.92
2022-11-05T20:47:31.988Z,10.97
2022-11-05T20:50:09.392Z,10.82
2022-11-05T20:52:38.534Z,10.90
2022-11-05T20:55:12.049Z,10.83
2022-11-05T20:57:42.117Z,10.91
2022-11-05T21:00:13.751Z,10.87
2022-11-05T21:02:47.428Z,10.83
2022-11-05T21:05:18.108Z,10.86
2022-11-05T21:07:51.140Z,10.85
2022-11-05T21:10:20.712Z,10.84
2022-11-05T21:12:50.845Z,10.76
2022-11-05T21:15:23.460Z,10.69
2022-11-05T21:17:57.205Z,10.60
2022-11-05T21:20:27.378Z,10.60
2022-11-05T21:23:00.393Z,10.75
2022-11-05T21:25:33.489Z,10.59
2022-11-05T21:28:04.524Z,10.75
2022-11-05T21:30:36.500Z,10.77
2022-11-05T21:33:08.659Z,10.70
2022-11-05T21:35:44.337Z,10.69
2022-11-05T21:38:16.062Z,10.33
2022-11-05T21:40:49.930Z,10.57
2022-11-05T21:43:20.285Z,10.50
2022-11-05T21:45:50.601Z,10.33
2022-11-05T21:48:20.842Z,10.36
2022-11-05T21:51:10.213Z,10.30
2022-11-05T21:54:00.530Z,10.51
2022-11-05T21:56:47.904Z,10.48
2022-11-05T21:59:39.392Z,10.53
2022-11-05T22:02:09.554Z,10.47
2022-11-05T22:04:43.382Z,10.41
2022-11-05T22:07:15.393Z,10.28
2022-11-05T22:09:48.501Z,10.45
2022-11-05T22:12:19.561Z,10.47
2022-11-05T22:14:48.023Z,10.37
2022-11-05T22:17:17.024Z,10.45
2022-11-05T22:19:48.400Z,10.25
2022-11-05T22:22:18.996Z,10.33
2022-11-05T22:24:47.552Z,10.25
2022-11-05T22:27:18.354Z,10.06
2022-11-05T22:29:47.688Z,10.14
2022-11-05T22:32:17.924Z,10.13
2022-11-05T22:34:50.452Z,10.09
2022-11-05T22:37:19.066Z,10.14
2022-11-05T22:39:47.249Z,10.21
2022-11-05T22:42:15.737Z,10.12
2022-11-05T22:44:45.415Z,10.20
2022-11-05T22:47:14.118Z,10.05
2022-11-05T22:49:43.733Z,9.99
2022-11-05T22:52:13.944Z,10.06
2022-11-05T22:54:43.288Z,10.25
2022-11-05T22:57:11.547Z,10.08
2022-11-05T22:59:40.699Z,10.07
2022-11-05T23:02:10.337Z,9.81
2022-11-05T23:04:40.019Z,9.85
2022-11-05T23:07:30.532Z,10.09
2022-11-05T23:10:16.104Z,10.07
2022-11-05T23:12:45.938Z,10.07
2022-11-05T23:15:35.975Z,10.00
2022-11-05T23:18:22.150Z,9.92
2022-11-05T23:21:10.211Z,10.13
2022-11-05T23:23:59.980Z,9.91
2022-11-05T23:26:46.756Z,9.94
2022-11-05T23:29:15.732Z,9.85
2022-11-05T23:32:03.514Z,9.90
2022-11-05T23:34:31.686Z,10.10
2022-11-05T23:37:17.010Z,9.99
2022-11-05T23:39:47.050Z,10.01
2022-11-05T23:42:34.971Z,9.90
2022-11-05T23:45:24.378Z,9.60
2022-11-05T23:48:11.224Z,9.67
2022-11-05T23:50:41.135Z,9.60
2022-11-05T23:53:11.128Z,9.73
2022-11-05T23:55:41.198Z,9.75
2022-11-05T23:58:11.236Z,9.83
